Time;durP1;ratioP1;P1;durP2;ratioP2;P2;SDS_P1;SDS_P2;PMS_P1;PMS_P2;Temp;Humidity;BMP_temperature;BMP_pressure;BME280_temperature;BME280_humidity;BME280_pressure;Samples;Min_cycle;Max_cycle;Signal;HPM_P1;HPM_P2
2023/10/24 00:00:18;;;;;;;4.82;2.60;;;15.50;99.90;;;;;;5019769;28;20419;-68
2023/10/24 00:02:43;;;;;;;3.05;2.42;;;15.40;99.80;;;;;;5019245;28;20413;-68
2023/10/24 00:05:09;;;;;;;3.63;2.65;;;15.40;99.90;;;;;;5020076;28;20037;-69
2023/10/24 00:07:35;;;;;;;4.00;2.50;;;15.40;99.90;;;;;;5019782;28;20065;-68
2023/10/24 00:10:02;;;;;;;4.00;2.53;;;15.40;99.90;;;;;;5020948;28;20036;-69
2023/10/24 00:12:29;;;;;;;6.72;2.80;;;15.50;99.90;;;;;;5019307;28;20037;-68
2023/10/24 00:14:58;;;;;;;3.63;2.70;;;15.50;99.60;;;;;;5021222;28;20025;-68
2023/10/24 00:17:24;;;;;;;4.18;2.45;;;15.50;99.80;;;;;;5019349;28;20345;-68
2023/10/24 00:19:50;;;;;;;4.22;2.67;;;15.50;99.70;;;;;;5022258;28;20445;-69
2023/10/24 00:22:16;;;;;;;4.80;2.78;;;15.50;99.90;;;;;;5018383;28;20034;-68
2023/10/24 00:24:41;;;;;;;3.08;2.45;;;15.50;99.90;;;;;;5021227;28;20022;-68
2023/10/24 00:27:07;;;;;;;6.00;2.83;;;15.40;99.60;;;;;;5019038;28;20521;-69
2023/10/24 00:29:33;;;;;;;3.13;2.67;;;15.40;99.90;;;;;;5021035;28;20079;-69
2023/10/24 00:31:58;;;;;;;3.72;2.53;;;15.30;99.80;;;;;;5018530;28;20055;-68
2023/10/24 00:34:24;;;;;;;5.53;3.28;;;15.30;99.90;;;;;;5017672;28;20410;-68
2023/10/24 00:36:50;;;;;;;2.80;2.40;;;15.30;99.90;;;;;;5021037;28;20808;-68
2023/10/24 00:39:16;;;;;;;5.15;3.10;;;15.30;99.90;;;;;;5018590;28;20671;-68
2023/10/24 00:41:41;;;;;;;5.25;2.85;;;15.30;99.90;;;;;;5031755;28;20125;-68
2023/10/24 00:44:07;;;;;;;2.92;2.63;;;15.20;99.60;;;;;;5018139;28;20033;-68
2023/10/24 00:46:34;;;;;;;4.82;2.53;;;15.10;99.90;;;;;;5022872;28;20032;-68
2023/10/24 00:49:02;;;;;;;6.75;3.13;;;15.10;99.90;;;;;;5033344;28;20033;-68
2023/10/24 00:51:27;;;;;;;4.43;2.95;;;15.00;99.90;;;;;;5020473;28;20044;-69
2023/10/24 00:53:54;;;;;;;3.85;2.75;;;15.00;99.90;;;;;;5017054;28;20690;-68
2023/10/24 00:56:22;;;;;;;4.70;2.60;;;14.90;99.90;;;;;;5035948;28;20053;-68
2023/10/24 00:58:48;;;;;;;8.98;3.30;;;14.80;99.90;;;;;;5018104;28;20538;-68
2023/10/24 01:01:15;;;;;;;4.13;2.95;;;14.80;99.90;;;;;;5035809;28;20049;-68
2023/10/24 01:03:43;;;;;;;2.80;2.47;;;14.80;99.90;;;;;;5023338;28;20132;-68
2023/10/24 01:06:12;;;;;;;4.75;3.42;;;14.90;99.90;;;;;;5020637;28;20029;-68
2023/10/24 01:08:37;;;;;;;4.63;3.00;;;14.90;99.90;;;;;;5019935;28;20030;-68
2023/10/24 01:11:05;;;;;;;5.28;2.63;;;14.90;99.90;;;;;;5018957;28;20145;-68
2023/10/24 01:13:32;;;;;;;3.63;2.67;;;15.10;99.90;;;;;;5016262;28;20767;-68
2023/10/24 01:15:58;;;;;;;3.15;2.72;;;15.20;99.90;;;;;;5019594;28;20111;-68
2023/10/24 01:18:24;;;;;;;4.28;2.60;;;15.20;99.90;;;;;;5017587;28;20040;-69
2023/10/24 01:20:50;;;;;;;4.65;2.60;;;15.30;99.90;;;;;;5032540;28;20048;-68
2023/10/24 01:23:16;;;;;;;4.28;2.42;;;15.30;99.90;;;;;;5014518;28;20029;-68
2023/10/24 01:25:43;;;;;;;4.70;2.55;;;15.40;99.90;;;;;;5019784;28;20072;-69
2023/10/24 01:28:09;;;;;;;6.20;3.35;;;15.30;99.90;;;;;;5016669;28;20037;-68
2023/10/24 01:30:38;;;;;;;4.22;2.38;;;15.30;99.90;;;;;;5017982;28;20037;-69
2023/10/24 01:33:04;;;;;;;3.08;2.55;;;15.30;99.90;;;;;;5017753;28;20223;-68
2023/10/24 01:35:30;;;;;;;3.00;2.28;;;15.40;99.90;;;;;;5017487;28;20450;-68
2023/10/24 01:37:57;;;;;;;4.70;2.80;;;15.50;99.90;;;;;;5018703;28;20048;-68
2023/10/24 01:40:22;;;;;;;7.97;3.08;;;15.60;99.90;;;;;;5013463;28;20827;-69
2023/10/24 01:42:48;;;;;;;4.00;2.42;;;15.60;99.30;;;;;;5021746;28;20033;-68
2023/10/24 01:45:17;;;;;;;3.75;2.65;;;15.70;99.90;;;;;;5015133;28;20071;-68
2023/10/24 01:47:43;;;;;;;4.47;2.60;;;15.70;99.90;;;;;;5023114;28;20025;-68
2023/10/24 01:50:09;;;;;;;3.70;2.40;;;15.80;99.40;;;;;;5015425;28;20128;-68
2023/10/24 01:52:35;;;;;;;6.05;2.90;;;15.80;99.70;;;;;;5018892;28;20061;-68
2023/10/24 01:55:01;;;;;;;6.38;2.70;;;16.00;99.20;;;;;;5017481;28;20076;-68
2023/10/24 01:57:27;;;;;;;4.00;2.47;;;16.00;98.90;;;;;;5034110;28;20045;-68
2023/10/24 01:59:53;;;;;;;9.10;2.85;;;16.10;98.80;;;;;;5016016;28;20026;-68
2023/10/24 02:02:19;;;;;;;4.38;2.67;;;16.10;98.30;;;;;;5034231;28;20053;-69
2023/10/24 02:04:45;;;;;;;4.28;2.70;;;16.10;98.30;;;;;;5017430;28;20108;-68
2023/10/24 02:07:11;;;;;;;4.60;2.72;;;16.10;98.30;;;;;;5017647;28;20053;-69
2023/10/24 02:09:39;;;;;;;5.63;2.83;;;16.10;98.40;;;;;;5018342;28;20108;-68
2023/10/24 02:12:05;;;;;;;12.48;3.00;;;16.10;98.30;;;;;;5019732;28;20120;-68
2023/10/24 02:14:31;;;;;;;4.38;2.90;;;16.00;98.90;;;;;;5017074;28;20045;-69
2023/10/24 02:16:57;;;;;;;3.92;3.08;;;15.90;98.70;;;;;;5019917;28;20037;-68
2023/10/24 02:19:24;;;;;;;4.07;2.67;;;15.90;98.70;;;;;;5015336;28;20387;-68
2023/10/24 02:21:50;;;;;;;4.32;2.60;;;15.90;98.90;;;;;;5025978;28;20032;-68
2023/10/24 02:24:16;;;;;;;6.95;2.65;;;15.90;98.80;;;;;;5019107;28;20868;-68
2023/10/24 02:26:42;;;;;;;5.43;2.83;;;15.90;99.00;;;;;;5026887;28;20022;-68
2023/10/24 02:29:08;;;;;;;5.65;3.38;;;15.90;98.90;;;;;;5034949;28;20068;-68
2023/10/24 02:31:33;;;;;;;8.43;3.08;;;16.00;98.90;;;;;;5021152;28;20039;-68
2023/10/24 02:33:59;;;;;;;3.25;2.67;;;15.90;98.60;;;;;;5019427;28;20413;-68
2023/10/24 02:36:25;;;;;;;3.72;2.83;;;16.00;98.80;;;;;;5020270;28;20510;-68
2023/10/24 02:38:51;;;;;;;7.35;2.92;;;15.90;98.70;;;;;;5023359;28;20478;-68
2023/10/24 02:41:17;;;;;;;3.80;2.65;;;15.90;99.10;;;;;;5021958;28;20041;-68
2023/10/24 02:43:43;;;;;;;5.95;3.13;;;16.00;98.70;;;;;;5023083;28;20039;-68
2023/10/24 02:46:09;;;;;;;4.90;3.10;;;15.90;98.40;;;;;;5037909;28;20033;-68
2023/10/24 02:48:34;;;;;;;4.55;2.83;;;15.90;98.60;;;;;;5022730;28;20029;-69
2023/10/24 02:51:02;;;;;;;3.78;2.67;;;15.80;98.90;;;;;;5020310;28;20135;-68
2023/10/24 02:53:29;;;;;;;7.07;3.83;;;15.80;98.90;;;;;;5022782;28;20068;-68
2023/10/24 02:55:55;;;;;;;4.85;3.00;;;15.80;99.00;;;;;;5020188;28;21007;-68
2023/10/24 02:58:20;;;;;;;4.93;3.00;;;15.80;98.90;;;;;;5021738;28;20029;-68
2023/10/24 03:00:46;;;;;;;4.88;2.60;;;15.70;99.20;;;;;;5020594;28;20038;-68
2023/10/24 03:03:12;;;;;;;8.98;3.03;;;15.50;99.20;;;;;;5020199;28;20038;-68
2023/10/24 03:05:38;;;;;;;5.68;3.25;;;15.40;99.50;;;;;;5020406;28;20702;-68
2023/10/24 03:08:05;;;;;;;5.80;3.30;;;15.30;99.90;;;;;;5021449;28;20032;-68
2023/10/24 03:10:31;;;;;;;6.80;3.40;;;15.20;99.90;;;;;;5019479;28;20052;-69
2023/10/24 03:12:57;;;;;;;7.50;3.90;;;15.20;99.90;;;;;;5022125;28;20041;-68
2023/10/24 03:15:23;;;;;;;5.10;3.17;;;15.20;99.90;;;;;;5017954;28;20048;-68
2023/10/24 03:17:49;;;;;;;6.00;3.30;;;15.20;99.90;;;;;;5023532;28;20033;-68
2023/10/24 03:20:15;;;;;;;5.90;2.75;;;15.10;99.90;;;;;;5016922;28;20042;-69
2023/10/24 03:22:40;;;;;;;4.13;2.70;;;15.20;99.90;;;;;;5023717;28;20029;-69
2023/10/24 03:25:07;;;;;;;5.45;3.50;;;15.20;99.90;;;;;;5017218;28;20481;-68
2023/10/24 03:27:34;;;;;;;4.60;3.22;;;15.30;99.90;;;;;;5023347;28;20025;-68
2023/10/24 03:30:01;;;;;;;4.43;2.72;;;15.40;99.90;;;;;;5018164;28;20112;-68
2023/10/24 03:32:27;;;;;;;3.97;2.65;;;15.50;99.90;;;;;;5022049;28;20609;-68
2023/10/24 03:34:53;;;;;;;6.10;3.00;;;15.50;99.80;;;;;;5018947;28;20095;-68
2023/10/24 03:37:20;;;;;;;6.15;2.72;;;15.60;99.70;;;;;;5018711;28;20132;-69
2023/10/24 03:39:46;;;;;;;4.47;2.40;;;15.60;99.90;;;;;;5020089;28;20504;-68
2023/10/24 03:42:14;;;;;;;6.03;2.60;;;15.60;99.90;;;;;;5019877;28;20042;-68
2023/10/24 03:44:40;;;;;;;7.63;3.00;;;15.60;99.80;;;;;;5020226;28;20532;-68
2023/10/24 03:47:06;;;;;;;5.00;3.03;;;15.60;99.90;;;;;;5024138;28;20045;-68
2023/10/24 03:49:32;;;;;;;5.85;2.92;;;15.50;99.90;;;;;;5020121;28;20036;-68
2023/10/24 03:51:58;;;;;;;10.38;3.38;;;15.50;99.90;;;;;;5018061;28;20041;-68
2023/10/24 03:54:24;;;;;;;7.30;3.13;;;15.40;99.90;;;;;;5021819;28;20045;-68
2023/10/24 03:56:49;;;;;;;7.03;4.63;;;15.40;99.90;;;;;;5018116;28;20481;-68
2023/10/24 03:59:15;;;;;;;6.53;3.42;;;15.30;99.90;;;;;;5019143;28;20033;-69
2023/10/24 04:01:41;;;;;;;7.68;3.13;;;15.20;99.90;;;;;;5018563;28;20079;-68
2023/10/24 04:04:07;;;;;;;9.63;3.88;;;15.00;99.90;;;;;;5023988;28;20037;-69
2023/10/24 04:06:36;;;;;;;7.68;3.00;;;14.90;99.90;;;;;;5018077;28;20021;-68
2023/10/24 04:09:05;;;;;;;6.32;3.30;;;14.80;99.90;;;;;;5023280;28;20037;-69
2023/10/24 04:11:32;;;;;;;7.20;2.78;;;14.90;99.90;;;;;;5018273;28;20029;-68
2023/10/24 04:13:58;;;;;;;5.18;3.17;;;14.90;99.90;;;;;;4472876;28;15073204;-68
2023/10/24 04:16:24;;;;;;;6.53;2.42;;;15.00;99.90;;;;;;5017165;28;20041;-68
2023/10/24 04:18:50;;;;;;;5.05;3.00;;;15.20;99.90;;;;;;5025627;28;20398;-68
2023/10/24 04:21:16;;;;;;;7.68;3.70;;;15.40;99.90;;;;;;5019726;28;20624;-68
2023/10/24 04:23:43;;;;;;;7.85;3.00;;;15.50;99.90;;;;;;5023071;28;20076;-68
2023/10/24 04:26:09;;;;;;;6.97;3.10;;;15.40;99.90;;;;;;5016304;28;20494;-68
2023/10/24 04:28:35;;;;;;;6.10;2.83;;;15.50;99.90;;;;;;5023203;28;20033;-68
2023/10/24 04:31:01;;;;;;;7.18;3.22;;;15.40;99.90;;;;;;5017501;28;20037;-68
2023/10/24 04:33:27;;;;;;;4.78;2.50;;;15.40;99.90;;;;;;5022319;28;20046;-68
2023/10/24 04:35:53;;;;;;;5.85;3.05;;;15.50;99.90;;;;;;5020258;28;20076;-68
2023/10/24 04:38:19;;;;;;;6.40;3.53;;;15.50;99.90;;;;;;5021297;28;20449;-68
2023/10/24 04:40:45;;;;;;;4.20;2.80;;;15.70;99.90;;;;;;5019599;28;20540;-68
2023/10/24 04:43:11;;;;;;;5.60;3.13;;;15.70;99.90;;;;;;5019992;28;20044;-68
2023/10/24 04:45:37;;;;;;;4.38;2.80;;;15.70;99.90;;;;;;5020404;28;20025;-68
2023/10/24 04:48:04;;;;;;;5.63;2.83;;;15.70;99.90;;;;;;5020470;28;20164;-68
2023/10/24 04:50:30;;;;;;;5.63;3.10;;;15.70;99.90;;;;;;5019370;28;20041;-68
2023/10/24 04:52:56;;;;;;;5.25;3.42;;;15.80;99.60;;;;;;5020768;28;20152;-67
2023/10/24 04:55:23;;;;;;;7.82;3.30;;;15.70;99.90;;;;;;5018523;28;20121;-67
2023/10/24 04:57:49;;;;;;;4.10;3.10;;;15.70;99.90;;;;;;5020719;28;20110;-69
2023/10/24 05:00:16;;;;;;;5.57;3.08;;;15.60;99.90;;;;;;5018531;28;20042;-68
2023/10/24 05:02:43;;;;;;;5.07;3.78;;;15.50;99.90;;;;;;5020986;28;20030;-68
2023/10/24 05:05:10;;;;;;;4.70;3.28;;;15.50;99.90;;;;;;5018695;28;20029;-68
2023/10/24 05:07:36;;;;;;;7.85;3.78;;;15.40;99.90;;;;;;5017415;28;20120;-68
2023/10/24 05:10:03;;;;;;;6.68;3.35;;;15.30;99.90;;;;;;5020209;28;20029;-67
2023/10/24 05:12:28;;;;;;;4.95;2.72;;;15.30;99.90;;;;;;5015756;28;20119;-68
2023/10/24 05:14:54;;;;;;;4.57;2.70;;;15.30;99.90;;;;;;5021502;28;20521;-68
2023/10/24 05:17:20;;;;;;;6.63;3.25;;;15.30;99.90;;;;;;5014933;28;20037;-68
2023/10/24 05:19:46;;;;;;;6.90;3.72;;;15.30;99.90;;;;;;5020753;28;20029;-68
2023/10/24 05:22:13;;;;;;;4.43;3.33;;;15.30;99.90;;;;;;5012493;28;20042;-68
2023/10/24 05:24:39;;;;;;;4.47;3.05;;;15.20;99.90;;;;;;5015978;28;20022;-68
2023/10/24 05:27:05;;;;;;;6.78;3.10;;;15.20;99.90;;;;;;5016333;28;20638;-69
2023/10/24 05:29:34;;;;;;;8.98;3.17;;;15.20;99.90;;;;;;5018789;28;20026;-68
2023/10/24 05:32:00;;;;;;;4.00;2.88;;;15.20;99.90;;;;;;5013139;28;20034;-68
2023/10/24 05:34:27;;;;;;;6.15;3.50;;;15.30;99.90;;;;;;5019461;28;20041;-68
2023/10/24 05:36:53;;;;;;;5.18;3.33;;;15.30;99.90;;;;;;5019311;28;20037;-67
2023/10/24 05:39:19;;;;;;;6.57;3.20;;;15.30;99.90;;;;;;5018716;28;20052;-68
2023/10/24 05:41:46;;;;;;;5.05;3.35;;;15.30;99.90;;;;;;5016957;28;20025;-68
2023/10/24 05:44:12;;;;;;;6.05;3.50;;;15.30;99.90;;;;;;5017482;28;20025;-68
2023/10/24 05:46:38;;;;;;;7.10;3.33;;;15.30;99.90;;;;;;5017627;28;20021;-68
2023/10/24 05:49:03;;;;;;;5.88;3.25;;;15.40;99.90;;;;;;5018478;28;20037;-68
2023/10/24 05:51:30;;;;;;;7.75;3.47;;;15.30;99.90;;;;;;5020381;28;20103;-69
2023/10/24 05:53:56;;;;;;;9.95;3.20;;;15.30;99.90;;;;;;5022248;28;20068;-68
2023/10/24 05:56:23;;;;;;;9.25;3.95;;;15.20;99.90;;;;;;5015655;28;20121;-68
2023/10/24 05:58:48;;;;;;;6.70;3.58;;;15.20;99.90;;;;;;5018473;28;20095;-68
2023/10/24 06:01:14;;;;;;;6.40;3.50;;;15.20;99.90;;;;;;5017582;28;20038;-68
2023/10/24 06:03:40;;;;;;;7.47;3.15;;;15.20;99.90;;;;;;5019355;28;20052;-69
2023/10/24 06:06:07;;;;;;;8.07;3.83;;;15.10;99.90;;;;;;5016636;28;20533;-69
2023/10/24 06:08:33;;;;;;;10.45;3.53;;;15.00;99.90;;;;;;5017410;28;20091;-68
2023/10/24 06:11:01;;;;;;;4.88;3.38;;;14.90;99.90;;;;;;5017843;28;20063;-68
2023/10/24 06:13:28;;;;;;;6.70;3.03;;;14.90;99.90;;;;;;5016546;28;20037;-68
2023/10/24 06:15:54;;;;;;;5.28;3.08;;;14.90;99.90;;;;;;5018634;28;20112;-69
2023/10/24 06:18:20;;;;;;;7.95;3.70;;;15.00;99.90;;;;;;5017054;28;20033;-68
2023/10/24 06:20:47;;;;;;;7.97;3.80;;;15.00;99.90;;;;;;5019447;28;20057;-68
2023/10/24 06:23:13;;;;;;;5.72;3.63;;;15.20;99.90;;;;;;5019228;28;20056;-68
2023/10/24 06:25:40;;;;;;;7.18;2.88;;;15.30;99.90;;;;;;5019630;28;20033;-68
2023/10/24 06:28:07;;;;;;;4.88;2.63;;;15.40;99.90;;;;;;5016165;28;20076;-68
2023/10/24 06:30:34;;;;;;;8.90;3.65;;;15.50;99.90;;;;;;5018925;28;20088;-68
2023/10/24 06:33:00;;;;;;;6.22;3.08;;;15.60;99.90;;;;;;5016701;28;20037;-68
2023/10/24 06:35:26;;;;;;;5.25;3.28;;;15.60;99.90;;;;;;5018529;28;20278;-68
2023/10/24 06:37:52;;;;;;;5.03;2.95;;;15.70;99.90;;;;;;5016397;28;20036;-68
2023/10/24 06:40:18;;;;;;;5.47;3.00;;;15.80;99.90;;;;;;5018671;28;20037;-68
2023/10/24 06:42:46;;;;;;;5.55;2.90;;;15.90;99.90;;;;;;5022582;28;20032;-68
2023/10/24 06:45:12;;;;;;;6.90;2.75;;;16.00;99.80;;;;;;5016880;28;20026;-68
2023/10/24 06:47:38;;;;;;;6.50;3.08;;;15.90;99.40;;;;;;5016874;28;20113;-68
2023/10/24 06:50:05;;;;;;;7.15;3.30;;;16.00;99.90;;;;;;5016945;28;20048;-69
2023/10/24 06:52:31;;;;;;;4.85;3.10;;;16.10;99.60;;;;;;5016158;28;20055;-68
2023/10/24 06:54:57;;;;;;;5.68;3.00;;;16.30;99.30;;;;;;5017846;28;20375;-68
2023/10/24 06:57:23;;;;;;;5.20;2.83;;;16.40;98.50;;;;;;5013459;28;20095;-69
2023/10/24 06:59:49;;;;;;;5.65;2.90;;;16.50;98.60;;;;;;5018246;28;20041;-68
2023/10/24 07:02:14;;;;;;;5.18;2.88;;;16.50;98.80;;;;;;5015009;28;20080;-68
2023/10/24 07:04:40;;;;;;;5.88;3.30;;;16.60;98.50;;;;;;5018282;28;20026;-68
2023/10/24 07:07:06;;;;;;;6.90;3.45;;;16.70;98.60;;;;;;5018158;28;20493;-68
2023/10/24 07:09:32;;;;;;;5.82;3.17;;;16.70;98.00;;;;;;5020913;28;20037;-68
2023/10/24 07:11:58;;;;;;;4.47;2.90;;;16.70;97.90;;;;;;5022677;28;20034;-68
2023/10/24 07:14:24;;;;;;;5.63;3.20;;;16.60;98.10;;;;;;5019986;28;20045;-68
2023/10/24 07:16:51;;;;;;;4.10;2.70;;;16.40;98.30;;;;;;5021745;28;20037;-69
2023/10/24 07:19:17;;;;;;;5.00;2.90;;;16.20;98.90;;;;;;5019746;28;20041;-68
2023/10/24 07:21:43;;;;;;;5.25;3.20;;;16.10;99.00;;;;;;5022206;28;20398;-68
2023/10/24 07:24:09;;;;;;;7.35;3.13;;;16.20;99.00;;;;;;5021531;28;20457;-68
2023/10/24 07:26:35;;;;;;;6.22;3.30;;;16.40;98.70;;;;;;5021916;28;20064;-68
2023/10/24 07:29:01;;;;;;;6.18;3.80;;;16.40;99.10;;;;;;5019226;28;20037;-68
2023/10/24 07:31:27;;;;;;;6.85;3.17;;;16.50;98.60;;;;;;5021241;28;20036;-68
2023/10/24 07:33:52;;;;;;;4.55;3.05;;;16.50;98.80;;;;;;5018022;28;20691;-68
2023/10/24 07:36:18;;;;;;;8.20;3.40;;;16.50;98.50;;;;;;5020876;28;20041;-68
2023/10/24 07:38:44;;;;;;;9.82;3.83;;;16.40;98.50;;;;;;5018666;28;20038;-69
2023/10/24 07:41:10;;;;;;;4.35;3.35;;;16.50;98.70;;;;;;5021575;28;20037;-68
2023/10/24 07:43:37;;;;;;;7.82;3.75;;;16.50;98.50;;;;;;5018709;28;20526;-68
2023/10/24 07:46:03;;;;;;;6.13;3.65;;;16.50;98.30;;;;;;5023429;28;20124;-68
2023/10/24 07:48:29;;;;;;;5.10;3.72;;;16.50;98.10;;;;;;5010660;28;20033;-70
2023/10/24 07:50:57;;;;;;;6.40;3.90;;;16.50;97.90;;;;;;5024352;28;20116;-70
2023/10/24 07:53:24;;;;;;;6.15;3.50;;;16.30;98.20;;;;;;5017050;28;20382;-70
2023/10/24 07:55:50;;;;;;;7.53;4.07;;;16.00;98.50;;;;;;5022462;28;20033;-70
2023/10/24 07:58:16;;;;;;;7.93;4.07;;;15.70;99.00;;;;;;5031347;28;20077;-70
2023/10/24 08:00:45;;;;;;;7.72;4.40;;;15.50;99.60;;;;;;5023349;28;20441;-69
2023/10/24 08:03:13;;;;;;;6.85;4.00;;;15.20;99.90;;;;;;5020186;28;20111;-70
2023/10/24 08:05:39;;;;;;;7.32;4.15;;;15.00;99.90;;;;;;5020949;28;20105;-70
2023/10/24 08:08:05;;;;;;;11.20;4.70;;;14.80;99.90;;;;;;5017829;28;20069;-69
2023/10/24 08:10:35;;;;;;;8.30;4.80;;;14.70;99.90;;;;;;5023311;28;20063;-69
2023/10/24 08:13:01;;;;;;;8.57;4.43;;;14.60;99.90;;;;;;5019232;28;20043;-69
2023/10/24 08:15:27;;;;;;;9.43;4.55;;;14.50;99.90;;;;;;5010702;28;20510;-69
2023/10/24 08:17:54;;;;;;;11.75;4.90;;;14.40;99.90;;;;;;5000188;28;20033;-70
2023/10/24 08:20:20;;;;;;;7.57;4.32;;;14.30;99.90;;;;;;4999444;28;20041;-70
2023/10/24 08:22:46;;;;;;;9.23;5.60;;;14.30;99.90;;;;;;4999945;28;20057;-70
2023/10/24 08:25:12;;;;;;;6.13;4.30;;;14.30;99.90;;;;;;4999042;28;20118;-70
2023/10/24 08:27:39;;;;;;;11.23;5.05;;;14.30;99.90;;;;;;4999506;28;20819;-70
2023/10/24 08:30:06;;;;;;;9.00;4.97;;;14.20;99.90;;;;;;5001144;28;20052;-70
2023/10/24 08:32:32;;;;;;;7.38;4.65;;;14.30;99.90;;;;;;4997433;28;20558;-70
2023/10/24 08:34:58;;;;;;;10.07;4.93;;;14.30;99.90;;;;;;5000526;28;20029;-70
2023/10/24 08:37:24;;;;;;;10.27;5.82;;;14.20;99.90;;;;;;4998691;28;20034;-71
2023/10/24 08:39:50;;;;;;;6.82;4.68;;;14.20;99.90;;;;;;4999144;28;20557;-70
2023/10/24 08:42:17;;;;;;;7.13;4.97;;;14.20;99.90;;;;;;5000393;28;20542;-69
2023/10/24 08:44:44;;;;;;;9.95;4.63;;;14.20;99.90;;;;;;5004286;28;20049;-69
2023/10/24 08:47:11;;;;;;;8.15;5.07;;;14.20;99.90;;;;;;4998320;28;20165;-70
2023/10/24 08:49:37;;;;;;;8.35;5.07;;;14.20;99.90;;;;;;4999592;28;20030;-70
2023/10/24 08:52:06;;;;;;;9.18;5.70;;;14.30;99.90;;;;;;4997467;28;20560;-70
2023/10/24 08:54:32;;;;;;;7.50;5.50;;;14.30;99.90;;;;;;4998352;28;20038;-70
2023/10/24 08:57:02;;;;;;;8.50;5.13;;;14.20;99.90;;;;;;5000685;28;20064;-69
2023/10/24 08:59:37;;;;;;;8.07;4.70;;;14.30;99.90;;;;;;4999594;28;20052;-69
2023/10/24 09:02:03;;;;;;;9.55;4.85;;;14.30;99.90;;;;;;5001919;28;20049;-69
2023/10/24 09:04:31;;;;;;;9.15;4.82;;;14.40;99.90;;;;;;4998861;28;20042;-70
2023/10/24 09:06:57;;;;;;;10.55;5.30;;;14.40;99.90;;;;;;5000358;28;20683;-69
2023/10/24 09:09:24;;;;;;;12.02;5.43;;;14.50;99.90;;;;;;4992718;28;20041;-69
2023/10/24 09:11:59;;;;;;;6.85;4.70;;;14.50;99.90;;;;;;5000635;28;20460;-69
2023/10/24 09:14:27;;;;;;;9.95;4.93;;;14.50;99.90;;;;;;4994916;28;20042;-69
2023/10/24 09:17:00;;;;;;;7.85;4.43;;;14.50;99.90;;;;;;4999828;28;20110;-69
2023/10/24 09:19:30;;;;;;;6.50;4.28;;;14.60;99.90;;;;;;4994980;28;20117;-69
2023/10/24 09:21:56;;;;;;;10.00;4.55;;;14.60;99.90;;;;;;5000098;28;20041;-70
2023/10/24 09:24:22;;;;;;;11.43;5.40;;;14.70;99.90;;;;;;4995060;28;20026;-69
2023/10/24 09:26:55;;;;;;;6.90;4.30;;;14.70;99.90;;;;;;4997124;28;20037;-69
2023/10/24 09:29:21;;;;;;;10.50;4.80;;;14.70;99.90;;;;;;4998043;28;20069;-70
2023/10/24 09:31:48;;;;;;;8.40;4.07;;;14.70;99.90;;;;;;5000527;28;20133;-69
2023/10/24 09:34:16;;;;;;;10.82;5.20;;;14.80;99.90;;;;;;4994297;28;20225;-70
2023/10/24 09:36:42;;;;;;;9.38;4.65;;;14.80;99.90;;;;;;5001019;28;20049;-69
2023/10/24 09:39:12;;;;;;;7.78;5.07;;;14.80;99.90;;;;;;4994673;28;20161;-69
2023/10/24 09:41:39;;;;;;;10.32;4.40;;;14.90;99.90;;;;;;5000533;28;20038;-70
2023/10/24 09:44:06;;;;;;;8.65;5.35;;;14.90;99.90;;;;;;4995666;28;20037;-70
2023/10/24 09:46:33;;;;;;;7.18;4.63;;;14.90;99.90;;;;;;4999029;28;20030;-70
2023/10/24 09:48:59;;;;;;;6.45;4.57;;;14.90;99.90;;;;;;4996373;28;20394;-70
2023/10/24 09:51:25;;;;;;;8.40;4.40;;;14.90;99.90;;;;;;4999330;28;20418;-69
2023/10/24 09:53:51;;;;;;;6.00;4.25;;;14.90;99.90;;;;;;4999741;28;20056;-69
2023/10/24 09:56:19;;;;;;;6.43;4.43;;;15.00;99.90;;;;;;4998622;28;20811;-69
2023/10/24 09:58:45;;;;;;;9.43;4.63;;;15.00;99.90;;;;;;4997657;28;20052;-70
2023/10/24 10:01:12;;;;;;;9.13;4.20;;;15.00;99.90;;;;;;4998418;28;20049;-70
2023/10/24 10:03:38;;;;;;;9.40;4.70;;;15.00;99.90;;;;;;4997548;28;20038;-70
2023/10/24 10:06:11;;;;;;;9.98;4.82;;;15.00;99.90;;;;;;4999315;28;20077;-70
2023/10/24 10:08:39;;;;;;;8.02;4.70;;;15.00;99.90;;;;;;4997411;28;20047;-70
2023/10/24 10:11:06;;;;;;;8.50;4.30;;;15.00;99.90;;;;;;4999228;28;20030;-70
2023/10/24 10:14:15;;;;;;;10.68;4.60;;;15.00;99.90;;;;;;4995435;28;20046;-69
2023/10/24 10:17:25;;;;;;;9.35;4.93;;;15.00;99.90;;;;;;4999158;28;20053;-64
2023/10/24 10:20:09;;;;;;;7.72;4.22;;;15.00;99.90;;;;;;4994969;28;20046;-63
2023/10/24 10:22:56;;;;;;;10.85;4.57;;;15.00;99.90;;;;;;4999620;28;20031;-63
2023/10/24 10:25:49;;;;;;;9.65;4.47;;;15.00;99.90;;;;;;4996178;28;20115;-63
2023/10/24 10:29:02;;;;;;;11.55;5.10;;;15.00;99.90;;;;;;4999475;28;20453;-64
2023/10/24 10:31:50;;;;;;;9.23;4.93;;;15.10;99.90;;;;;;4998875;28;20121;-64
2023/10/24 10:34:16;;;;;;;9.55;4.40;;;15.00;99.90;;;;;;4995269;28;20093;-64
2023/10/24 10:36:54;;;;;;;7.93;4.53;;;15.00;99.90;;;;;;5001157;28;20030;-64
2023/10/24 10:39:20;;;;;;;6.97;4.20;;;15.10;99.90;;;;;;4995719;28;20069;-64
2023/10/24 10:41:46;;;;;;;9.70;4.95;;;15.10;99.90;;;;;;5002407;28;20445;-64
2023/10/24 10:44:38;;;;;;;7.70;4.18;;;15.20;99.90;;;;;;4998653;28;20105;-64
2023/10/24 10:47:06;;;;;;;8.68;4.40;;;15.30;99.90;;;;;;5004368;28;20457;-64
2023/10/24 10:49:46;;;;;;;6.68;4.50;;;15.40;99.90;;;;;;4999110;28;20038;-64
2023/10/24 10:52:41;;;;;;;7.20;4.32;;;15.40;99.90;;;;;;5000107;28;20033;-65
2023/10/24 10:55:28;;;;;;;8.93;4.18;;;15.50;99.90;;;;;;5000756;28;20045;-64
2023/10/24 10:57:59;;;;;;;7.65;4.50;;;15.60;99.90;;;;;;5001775;28;20033;-66
2023/10/24 11:00:34;;;;;;;8.43;4.72;;;15.70;99.90;;;;;;4999408;28;20038;-66
2023/10/24 11:03:33;;;;;;;10.50;4.47;;;15.70;99.90;;;;;;5002931;28;20118;-64
2023/10/24 11:06:11;;;;;;;6.35;4.03;;;15.60;99.90;;;;;;5003054;28;20050;-64
2023/10/24 11:08:37;;;;;;;9.35;4.63;;;15.60;99.90;;;;;;4999866;28;20045;-64
2023/10/24 11:11:07;;;;;;;7.43;4.50;;;15.70;99.90;;;;;;5002206;28;20026;-64
2023/10/24 11:13:33;;;;;;;8.20;5.00;;;15.70;99.90;;;;;;4999664;28;20092;-64
2023/10/24 11:16:01;;;;;;;6.70;4.05;;;15.70;99.90;;;;;;5001815;28;20510;-64
2023/10/24 11:18:28;;;;;;;9.95;4.22;;;15.80;99.90;;;;;;5001803;28;20034;-65
2023/10/24 11:20:54;;;;;;;7.13;3.83;;;15.80;99.90;;;;;;5002227;28;20033;-64
2023/10/24 11:23:21;;;;;;;5.68;4.03;;;15.80;99.90;;;;;;4998828;28;20129;-64
2023/10/24 11:25:47;;;;;;;6.15;3.90;;;15.80;99.90;;;;;;5001501;28;20526;-65
2023/10/24 11:28:13;;;;;;;7.72;4.25;;;15.90;99.90;;;;;;5000408;28;20057;-65
2023/10/24 11:30:38;;;;;;;5.55;3.65;;;15.90;99.90;;;;;;5000205;28;20105;-64
2023/10/24 11:33:04;;;;;;;6.95;3.95;;;15.90;99.90;;;;;;5002236;28;20107;-63
2023/10/24 11:35:30;;;;;;;8.65;4.13;;;15.90;99.90;;;;;;5017143;28;20034;-64
2023/10/24 11:37:56;;;;;;;6.95;4.30;;;15.90;99.90;;;;;;5001779;28;20026;-64
2023/10/24 11:40:21;;;;;;;9.65;4.78;;;15.90;99.90;;;;;;4995623;28;20038;-64
2023/10/24 11:42:47;;;;;;;7.82;4.43;;;15.90;99.90;;;;;;5001497;28;20037;-64
2023/10/24 11:45:13;;;;;;;7.88;4.05;;;15.90;99.90;;;;;;5011005;28;20042;-64
2023/10/24 11:47:39;;;;;;;6.80;4.07;;;15.80;99.90;;;;;;5002220;28;20117;-64
2023/10/24 11:50:05;;;;;;;7.20;4.15;;;15.80;99.90;;;;;;4997718;28;20441;-64
2023/10/24 11:52:31;;;;;;;9.55;4.18;;;15.70;99.90;;;;;;5000259;28;20030;-63
2023/10/24 11:54:57;;;;;;;7.40;3.78;;;15.60;99.90;;;;;;4998559;28;20064;-64
2023/10/24 11:57:23;;;;;;;10.00;3.90;;;15.60;99.90;;;;;;4999661;28;20038;-67
2023/10/24 11:59:51;;;;;;;6.45;3.90;;;15.50;99.90;;;;;;4998906;28;20486;-64
2023/10/24 12:02:17;;;;;;;8.43;3.97;;;15.50;99.90;;;;;;4999710;28;20034;-64
2023/10/24 12:04:51;;;;;;;8.35;4.22;;;15.40;99.90;;;;;;4998152;28;20702;-64
2023/10/24 12:07:17;;;;;;;10.70;3.33;;;15.40;99.90;;;;;;4999600;28;20120;-64
2023/10/24 12:09:43;;;;;;;6.68;3.72;;;15.40;99.90;;;;;;4999468;28;20059;-64
2023/10/24 12:12:12;;;;;;;5.22;3.15;;;15.40;99.90;;;;;;4996211;28;20030;-64
2023/10/24 12:14:41;;;;;;;9.40;4.30;;;15.40;99.90;;;;;;4997801;28;20038;-64
2023/10/24 12:17:08;;;;;;;5.90;4.07;;;15.50;99.90;;;;;;5000993;28;20124;-64
2023/10/24 12:19:34;;;;;;;6.43;3.88;;;15.50;99.90;;;;;;4999489;28;20074;-64
2023/10/24 12:22:00;;;;;;;5.40;3.55;;;15.60;99.90;;;;;;5000034;28;20112;-64
2023/10/24 12:24:25;;;;;;;4.30;3.50;;;15.60;99.90;;;;;;4997109;28;20038;-64
2023/10/24 12:26:51;;;;;;;6.35;3.97;;;15.70;99.90;;;;;;5000292;28;20044;-65
2023/10/24 12:29:17;;;;;;;7.40;3.92;;;15.70;99.90;;;;;;4999782;28;20037;-64
2023/10/24 12:31:43;;;;;;;8.15;4.57;;;15.60;99.90;;;;;;5000462;28;20498;-64
2023/10/24 12:34:10;;;;;;;7.07;4.10;;;15.60;99.90;;;;;;4999650;28;20128;-64
2023/10/24 12:36:36;;;;;;;5.35;3.47;;;15.60;99.90;;;;;;4998850;28;20042;-64
2023/10/24 12:39:02;;;;;;;5.53;3.65;;;15.60;99.90;;;;;;5000039;28;20049;-64
2023/10/24 12:41:28;;;;;;;6.47;4.25;;;15.60;99.90;;;;;;5000129;28;20029;-65
2023/10/24 12:43:54;;;;;;;8.80;4.28;;;15.70;99.90;;;;;;5000159;28;20034;-65
2023/10/24 12:46:20;;;;;;;6.75;4.28;;;15.70;99.90;;;;;;4998266;28;20037;-64